createdAt,value
2018-10-17T00:00:04.010Z,72.16
2018-10-17T00:02:31.294Z,71.42
2018-10-17T00:04:58.739Z,70.67
2018-10-17T00:07:25.998Z,69.66
2018-10-17T00:09:53.359Z,70.62
2018-10-17T00:12:20.581Z,71.53
2018-10-17T00:14:47.921Z,71.61
2018-10-17T00:17:15.255Z,71.92
2018-10-17T00:19:42.544Z,72.18
2018-10-17T00:22:09.822Z,71.93
2018-10-17T00:24:37.053Z,71.93
2018-10-17T00:27:04.776Z,72.57
2018-10-17T00:29:32.058Z,71.90
2018-10-17T00:31:59.375Z,72.68
2018-10-17T00:34:26.649Z,72.56
2018-10-17T00:36:54.070Z,73.26
2018-10-17T00:39:21.410Z,73.45
2018-10-17T00:41:48.641Z,73.56
2018-10-17T00:44:16.751Z,74.13
2018-10-17T00:46:44.099Z,74.08
2018-10-17T00:49:11.423Z,75.62
2018-10-17T00:51:38.707Z,73.81
2018-10-17T00:54:06.035Z,73.36
2018-10-17T00:56:33.305Z,74.09
2018-10-17T00:59:10.037Z,74.74
2018-10-17T01:01:37.776Z,75.21
2018-10-17T01:04:05.556Z,73.33
2018-10-17T01:06:33.291Z,74.53
2018-10-17T01:09:01.998Z,74.66
2018-10-17T01:11:29.573Z,74.59
2018-10-17T01:13:56.801Z,73.96
2018-10-17T01:16:24.098Z,74.32
2018-10-17T01:18:51.386Z,74.63
2018-10-17T01:21:18.845Z,75.30
2018-10-17T01:23:46.231Z,74.40
2018-10-17T01:26:13.648Z,74.80
2018-10-17T01:28:41.124Z,74.73
2018-10-17T01:31:08.360Z,74.64
2018-10-17T01:33:35.759Z,74.03
2018-10-17T01:36:04.909Z,73.72
2018-10-17T01:38:32.259Z,74.20
2018-10-17T01:40:59.510Z,74.62
2018-10-17T01:43:26.836Z,74.91
2018-10-17T01:45:54.115Z,75.25
2018-10-17T01:48:21.355Z,75.17
2018-10-17T01:50:48.634Z,75.85
2018-10-17T01:53:16.048Z,75.29
2018-10-17T01:55:43.277Z,75.02
2018-10-17T01:58:10.534Z,74.83
2018-10-17T02:00:37.882Z,75.47
2018-10-17T02:03:05.164Z,76.40
2018-10-17T02:05:32.502Z,76.20
2018-10-17T02:07:59.773Z,75.86
2018-10-17T02:10:27.080Z,75.36
2018-10-17T02:12:54.565Z,75.39
2018-10-17T02:15:22.074Z,75.25
2018-10-17T02:17:49.377Z,75.29
2018-10-17T02:20:16.692Z,75.26
2018-10-17T02:22:43.990Z,75.56
2018-10-17T02:25:11.460Z,76.25
2018-10-17T02:27:38.773Z,76.01
2018-10-17T02:30:06.323Z,76.11
2018-10-17T02:32:33.522Z,77.08
2018-10-17T02:35:06.573Z,77.09
2018-10-17T02:37:33.766Z,77.16
2018-10-17T02:40:01.167Z,77.26
2018-10-17T02:42:28.429Z,75.47
2018-10-17T02:44:55.924Z,74.79
2018-10-17T02:47:23.299Z,75.78
2018-10-17T02:49:50.630Z,76.67
2018-10-17T02:52:17.944Z,75.66
2018-10-17T02:54:45.242Z,76.03
2018-10-17T02:57:12.537Z,75.92
2018-10-17T02:59:39.845Z,76.19
2018-10-17T03:02:07.054Z,76.06
2018-10-17T03:04:34.396Z,75.81
2018-10-17T03:07:01.701Z,76.40
2018-10-17T03:09:28.996Z,76.86
2018-10-17T03:11:56.375Z,76.89
2018-10-17T03:14:23.748Z,77.65
2018-10-17T03:16:51.044Z,78.25
2018-10-17T03:19:18.424Z,77.89
2018-10-17T03:21:45.669Z,77.43
2018-10-17T03:24:12.957Z,77.69
2018-10-17T03:26:40.310Z,77.32
2018-10-17T03:29:08.074Z,77.01
2018-10-17T03:31:35.327Z,76.54
2018-10-17T03:34:02.616Z,76.16
2018-10-17T03:36:29.882Z,76.89
2018-10-17T03:38:57.221Z,76.82
2018-10-17T03:41:24.464Z,77.21
2018-10-17T03:43:51.723Z,76.95
2018-10-17T03:46:18.983Z,76.71
2018-10-17T03:48:46.329Z,77.23
2018-10-17T03:51:13.639Z,77.18
2018-10-17T03:53:40.980Z,77.94
2018-10-17T03:56:08.285Z,77.77
2018-10-17T03:58:35.559Z,77.80
2018-10-17T04:01:03.011Z,77.89
2018-10-17T04:03:30.231Z,78.28
2018-10-17T04:05:57.487Z,78.85
2018-10-17T04:08:24.798Z,79.28
2018-10-17T04:10:52.055Z,78.93
2018-10-17T04:13:19.418Z,79.11
2018-10-17T04:15:46.693Z,79.01
2018-10-17T04:18:14.002Z,79.44
2018-10-17T04:20:41.366Z,78.92
2018-10-17T04:23:08.524Z,79.03
2018-10-17T04:25:35.847Z,79.07
2018-10-17T04:28:03.321Z,79.67
2018-10-17T04:30:30.648Z,79.43
2018-10-17T04:32:57.884Z,79.75
2018-10-17T04:35:25.215Z,79.32
2018-10-17T04:37:52.629Z,78.55
2018-10-17T04:40:19.871Z,79.17
2018-10-17T04:42:47.323Z,79.93
2018-10-17T04:45:14.618Z,79.51
2018-10-17T04:47:41.940Z,80.10
2018-10-17T04:50:10.316Z,79.70
2018-10-17T04:52:37.774Z,80.10
2018-10-17T04:55:05.732Z,80.45
2018-10-17T04:57:33.111Z,80.54
2018-10-17T05:00:00.871Z,80.18
2018-10-17T05:02:28.186Z,79.97
2018-10-17T05:04:55.552Z,80.29
2018-10-17T05:07:22.820Z,79.91
2018-10-17T05:09:50.165Z,79.90
2018-10-17T05:12:17.506Z,79.98
2018-10-17T05:14:44.947Z,79.91
2018-10-17T05:17:12.287Z,79.48
2018-10-17T05:19:39.688Z,79.60
2018-10-17T05:22:07.244Z,78.25
2018-10-17T05:24:34.529Z,77.05
2018-10-17T05:27:01.849Z,78.14
2018-10-17T05:29:29.141Z,78.17
2018-10-17T05:31:56.453Z,78.09
2018-10-17T05:34:23.790Z,78.43
2018-10-17T05:36:51.091Z,79.32
2018-10-17T05:39:18.396Z,79.58
2018-10-17T05:41:45.689Z,79.65
2018-10-17T05:44:12.918Z,79.92
2018-10-17T05:46:40.220Z,79.59
2018-10-17T05:49:07.514Z,80.35
2018-10-17T05:51:34.774Z,80.61
2018-10-17T05:54:02.090Z,79.88
2018-10-17T05:58:01.235Z,79.39
2018-10-17T06:00:28.596Z,79.59
2018-10-17T06:02:55.804Z,79.12
2018-10-17T06:05:23.049Z,79.22
2018-10-17T06:07:50.348Z,78.74
2018-10-17T06:10:17.619Z,78.87
2018-10-17T06:12:44.873Z,78.91
2018-10-17T06:15:12.147Z,78.48
2018-10-17T06:17:39.456Z,78.55
2018-10-17T06:20:07.073Z,79.26
2018-10-17T06:22:34.311Z,78.24
2018-10-17T06:25:01.794Z,78.39
2018-10-17T06:27:29.110Z,78.08
2018-10-17T06:29:56.390Z,77.99
2018-10-17T06:32:23.689Z,78.20
2018-10-17T06:34:51.093Z,77.29
2018-10-17T06:37:18.416Z,78.17
2018-10-17T06:39:45.698Z,76.40
2018-10-17T06:42:13.025Z,74.21
2018-10-17T06:44:40.432Z,71.93
2018-10-17T06:47:07.955Z,69.30
2018-10-17T06:49:35.180Z,68.03
2018-10-17T06:52:02.488Z,67.64
2018-10-17T06:54:30.152Z,65.51
2018-10-17T06:56:57.312Z,61.67
2018-10-17T06:59:24.648Z,60.22
2018-10-17T07:01:52.014Z,58.61
2018-10-17T07:04:20.065Z,58.94
2018-10-17T07:06:47.367Z,57.46
2018-10-17T07:09:14.727Z,55.14
2018-10-17T07:11:42.007Z,51.88
2018-10-17T07:14:09.294Z,49.60
2018-10-17T07:16:36.583Z,49.25
2018-10-17T07:19:04.143Z,47.41
2018-10-17T07:21:31.464Z,46.96
2018-10-17T07:23:58.794Z,45.88
2018-10-17T07:26:26.076Z,45.16
2018-10-17T07:28:53.981Z,44.14
2018-10-17T07:31:21.196Z,43.65
2018-10-17T07:33:48.560Z,43.64
2018-10-17T07:36:15.970Z,43.71
2018-10-17T07:38:43.226Z,44.48
2018-10-17T07:41:10.539Z,44.95
2018-10-17T07:43:37.821Z,45.68
2018-10-17T07:46:05.125Z,46.14
2018-10-17T07:48:32.331Z,46.32
2018-10-17T07:50:59.649Z,46.22
2018-10-17T07:53:26.938Z,45.90
2018-10-17T07:55:54.224Z,45.20
2018-10-17T07:58:22.863Z,44.36
2018-10-17T08:00:50.148Z,42.51
2018-10-17T08:03:17.465Z,41.49
2018-10-17T08:05:44.694Z,40.60
2018-10-17T08:08:11.997Z,40.47
2018-10-17T08:10:39.351Z,39.94
2018-10-17T08:13:06.675Z,40.42
2018-10-17T08:15:34.168Z,39.09
2018-10-17T08:18:01.464Z,39.25
2018-10-17T08:20:28.696Z,38.88
2018-10-17T08:22:56.008Z,38.29
2018-10-17T08:25:23.328Z,38.72
2018-10-17T08:27:50.633Z,39.96
2018-10-17T08:30:17.927Z,38.28
2018-10-17T08:32:45.224Z,36.85
2018-10-17T08:35:12.538Z,36.45
2018-10-17T08:37:40.230Z,37.14
2018-10-17T08:40:07.129Z,37.05
2018-10-17T08:42:34.472Z,37.72
2018-10-17T08:45:01.829Z,36.67
2018-10-17T08:47:29.162Z,36.98
2018-10-17T08:49:56.839Z,36.09
2018-10-17T08:52:24.268Z,36.73
2018-10-17T08:54:51.638Z,36.15
2018-10-17T08:57:18.956Z,35.49
2018-10-17T08:59:46.167Z,35.63
2018-10-17T09:02:13.530Z,34.58
2018-10-17T09:04:40.678Z,34.11
2018-10-17T09:07:07.925Z,34.10
2018-10-17T09:09:35.175Z,34.18
2018-10-17T09:12:02.477Z,33.65
2018-10-17T09:14:29.729Z,34.44
2018-10-17T09:16:57.021Z,34.85
2018-10-17T09:19:24.392Z,35.40
2018-10-17T09:21:52.088Z,35.81
2018-10-17T09:24:19.184Z,35.55
2018-10-17T09:26:46.585Z,35.44
2018-10-17T09:29:13.907Z,35.76
2018-10-17T09:31:41.193Z,35.04
2018-10-17T09:34:08.534Z,33.80
2018-10-17T09:36:35.819Z,34.33
2018-10-17T09:39:04.282Z,33.25
2018-10-17T09:41:31.573Z,33.64
2018-10-17T09:43:58.918Z,33.39
2018-10-17T09:46:26.261Z,32.83
2018-10-17T09:48:53.504Z,33.29
2018-10-17T09:51:20.799Z,33.60
2018-10-17T09:53:48.093Z,32.83
2018-10-17T09:56:15.347Z,32.48
2018-10-17T09:58:42.663Z,32.85
2018-10-17T10:01:15.714Z,33.22
2018-10-17T10:03:43.022Z,31.11
2018-10-17T10:06:10.409Z,32.53
2018-10-17T10:08:37.721Z,32.08
2018-10-17T10:11:05.616Z,33.09
2018-10-17T10:13:32.899Z,33.25
2018-10-17T10:16:00.221Z,33.11
2018-10-17T10:18:27.439Z,32.98
2018-10-17T10:20:54.691Z,33.32
2018-10-17T10:23:22.108Z,31.80
2018-10-17T10:25:49.442Z,33.70
2018-10-17T10:28:16.937Z,34.66
2018-10-17T10:30:44.215Z,33.29
2018-10-17T10:33:11.469Z,34.37
2018-10-17T10:35:38.698Z,34.77
2018-10-17T10:38:06.267Z,35.14
2018-10-17T10:40:34.002Z,34.68
2018-10-17T10:43:01.516Z,33.39
2018-10-17T10:45:28.896Z,33.22
2018-10-17T10:47:56.141Z,33.62
2018-10-17T10:50:23.466Z,32.23
2018-10-17T10:52:50.805Z,30.67
2018-10-17T10:55:18.005Z,31.11
2018-10-17T10:57:45.275Z,30.08
2018-10-17T11:00:12.721Z,31.29
2018-10-17T11:02:40.053Z,31.15
2018-10-17T11:05:07.520Z,30.69
2018-10-17T11:07:34.808Z,31.77
2018-10-17T11:10:02.298Z,30.75
2018-10-17T11:12:29.669Z,30.86
2018-10-17T11:15:01.265Z,29.91
2018-10-17T11:17:28.321Z,31.37
2018-10-17T11:19:55.615Z,30.05
2018-10-17T11:22:22.931Z,30.05
2018-10-17T11:24:50.348Z,30.22
2018-10-17T11:27:17.753Z,29.15
2018-10-17T11:29:44.965Z,29.51
2018-10-17T11:32:12.270Z,29.27
2018-10-17T11:34:39.603Z,30.15
2018-10-17T11:37:06.863Z,30.78
2018-10-17T11:39:34.229Z,31.15
2018-10-17T11:42:01.535Z,30.07
2018-10-17T11:44:28.816Z,29.50
2018-10-17T11:46:56.089Z,29.08
2018-10-17T11:49:23.435Z,29.76
2018-10-17T11:51:51.373Z,29.43
2018-10-17T11:54:18.708Z,29.83
2018-10-17T11:56:46.094Z,30.82
2018-10-17T11:59:13.453Z,29.94
2018-10-17T12:01:40.702Z,30.07
2018-10-17T12:04:08.222Z,29.86
2018-10-17T12:06:35.554Z,30.20
2018-10-17T12:09:03.913Z,29.81
2018-10-17T12:11:31.264Z,31.18
2018-10-17T12:13:58.467Z,31.34
2018-10-17T12:16:25.773Z,31.86
2018-10-17T12:18:53.135Z,31.71
2018-10-17T12:21:20.402Z,31.67
2018-10-17T12:23:47.679Z,31.21
2018-10-17T12:26:15.046Z,31.37
2018-10-17T12:28:42.422Z,32.66
2018-10-17T12:31:09.657Z,31.99
2018-10-17T12:33:36.943Z,33.24
2018-10-17T12:36:06.271Z,32.58
2018-10-17T12:38:33.542Z,31.79
2018-10-17T12:41:00.991Z,31.44
2018-10-17T12:43:28.141Z,31.30
2018-10-17T12:45:55.510Z,31.62
2018-10-17T12:48:22.821Z,31.95
2018-10-17T12:50:50.101Z,31.21
2018-10-17T12:53:17.471Z,30.19
2018-10-17T12:55:44.951Z,32.20
2018-10-17T12:58:12.258Z,31.48
2018-10-17T13:00:39.537Z,32.34
2018-10-17T13:03:06.845Z,31.95
2018-10-17T13:05:34.479Z,30.96
2018-10-17T13:08:01.835Z,30.54
2018-10-17T13:10:29.147Z,31.75
2018-10-17T13:12:56.457Z,31.70
2018-10-17T13:15:23.686Z,30.83
2018-10-17T13:17:50.992Z,32.38
2018-10-17T13:20:18.268Z,32.31
2018-10-17T13:22:45.579Z,33.70
2018-10-17T13:25:12.898Z,33.66
2018-10-17T13:27:40.163Z,33.16
2018-10-17T13:30:07.848Z,34.19
2018-10-17T13:32:35.154Z,34.37
2018-10-17T13:35:02.403Z,33.08
2018-10-17T13:37:29.723Z,32.39
2018-10-17T13:39:57.031Z,32.72
2018-10-17T13:42:24.340Z,32.25
2018-10-17T13:44:51.604Z,31.83
2018-10-17T13:47:19.054Z,31.26
2018-10-17T13:49:46.442Z,31.13
2018-10-17T13:52:13.561Z,29.79
2018-10-17T13:54:40.829Z,31.01
2018-10-17T13:57:08.120Z,30.67
2018-10-17T13:59:35.503Z,30.80
2018-10-17T14:02:02.810Z,31.07
2018-10-17T14:04:30.132Z,31.41
2018-10-17T14:06:57.446Z,31.37
2018-10-17T14:09:24.756Z,30.99
2018-10-17T14:11:52.141Z,31.61
2018-10-17T14:14:19.496Z,32.84
2018-10-17T14:16:46.927Z,32.73
2018-10-17T14:19:14.331Z,34.09
2018-10-17T14:21:41.589Z,33.95
2018-10-17T14:24:09.016Z,34.97
2018-10-17T14:26:36.309Z,35.38
2018-10-17T14:29:03.632Z,35.21
2018-10-17T14:31:30.892Z,35.65
2018-10-17T14:33:58.187Z,35.96
2018-10-17T14:36:25.566Z,35.52
2018-10-17T14:38:52.825Z,36.63
2018-10-17T14:41:20.271Z,36.50
2018-10-17T14:43:47.505Z,36.48
2018-10-17T14:46:14.774Z,36.62
2018-10-17T14:48:42.074Z,37.43
2018-10-17T14:51:09.348Z,36.56
2018-10-17T14:53:36.631Z,37.23
2018-10-17T14:56:04.087Z,37.72
2018-10-17T14:58:31.303Z,37.01
2018-10-17T15:00:58.599Z,37.62
2018-10-17T15:03:25.980Z,37.65
2018-10-17T15:05:53.349Z,37.46
2018-10-17T15:08:20.634Z,38.36
2018-10-17T15:10:47.998Z,38.31
2018-10-17T15:13:15.222Z,39.14
2018-10-17T15:15:44.081Z,38.36
2018-10-17T15:18:11.541Z,38.69
2018-10-17T15:20:38.770Z,39.75
2018-10-17T15:23:06.192Z,40.18
2018-10-17T15:25:33.495Z,40.34
2018-10-17T15:28:00.764Z,40.67
2018-10-17T15:30:28.051Z,40.10
2018-10-17T15:32:55.417Z,40.65
2018-10-17T15:35:22.749Z,40.29
2018-10-17T15:37:50.090Z,40.40
2018-10-17T15:40:17.346Z,41.66
2018-10-17T15:42:44.647Z,41.30
2018-10-17T15:45:12.111Z,42.09
2018-10-17T15:47:39.288Z,41.61
2018-10-17T15:50:06.620Z,42.42
2018-10-17T15:52:33.945Z,43.08
2018-10-17T15:55:01.241Z,42.64
2018-10-17T15:57:28.520Z,43.33
2018-10-17T15:59:56.172Z,43.47
2018-10-17T16:02:23.588Z,43.63
2018-10-17T16:04:50.925Z,43.70
2018-10-17T16:07:18.349Z,44.79
2018-10-17T16:09:45.572Z,45.10
2018-10-17T16:12:13.022Z,44.99
2018-10-17T16:14:40.476Z,45.82
2018-10-17T16:17:07.875Z,45.78
2018-10-17T16:19:35.138Z,46.44
2018-10-17T16:22:02.383Z,46.68
2018-10-17T16:24:29.668Z,46.97
2018-10-17T16:26:57.052Z,47.50
2018-10-17T16:29:24.271Z,47.75
2018-10-17T16:31:51.549Z,48.42
2018-10-17T16:34:18.864Z,48.68
2018-10-17T16:36:46.191Z,49.36
2018-10-17T16:39:13.455Z,49.35
2018-10-17T16:41:40.838Z,49.64
2018-10-17T16:44:08.583Z,50.23
2018-10-17T16:46:36.171Z,50.28
2018-10-17T16:49:03.627Z,50.28
2018-10-17T16:51:31.109Z,50.58
2018-10-17T16:53:58.613Z,50.88
2018-10-17T16:56:25.881Z,50.97
2018-10-17T16:58:53.468Z,51.08
2018-10-17T17:01:20.687Z,51.16
2018-10-17T17:03:47.919Z,51.71
2018-10-17T17:06:15.288Z,51.43
2018-10-17T17:08:42.578Z,51.86
2018-10-17T17:11:09.913Z,52.97
2018-10-17T17:13:37.244Z,52.94
2018-10-17T17:16:04.744Z,52.72
2018-10-17T17:18:32.057Z,53.51
2018-10-17T17:20:59.404Z,53.35
2018-10-17T17:23:26.753Z,53.14
2018-10-17T17:25:54.189Z,53.77
2018-10-17T17:28:21.537Z,53.76
2018-10-17T17:30:48.802Z,53.68
2018-10-17T17:33:16.291Z,53.75
2018-10-17T17:35:43.490Z,54.39
2018-10-17T17:38:10.820Z,54.64
2018-10-17T17:40:38.094Z,55.02
2018-10-17T17:43:05.814Z,55.06
2018-10-17T17:45:33.335Z,55.44
2018-10-17T17:48:00.580Z,55.58
2018-10-17T17:50:27.825Z,55.59
2018-10-17T17:52:55.132Z,54.70
2018-10-17T17:55:22.416Z,55.08
2018-10-17T17:57:49.912Z,54.64
2018-10-17T18:00:17.185Z,55.08
2018-10-17T18:02:44.488Z,55.52
2018-10-17T18:05:11.832Z,55.61
2018-10-17T18:07:39.228Z,55.23
2018-10-17T18:10:07.040Z,55.48
2018-10-17T18:12:34.309Z,55.84
2018-10-17T18:15:01.677Z,56.00
2018-10-17T18:17:29.123Z,56.12
2018-10-17T18:19:56.482Z,55.97
2018-10-17T18:22:23.869Z,56.62
2018-10-17T18:27:27.816Z,56.96
2018-10-17T18:29:55.162Z,57.04
2018-10-17T18:32:22.495Z,56.42
2018-10-17T18:34:49.859Z,56.87
2018-10-17T18:37:17.131Z,57.16
2018-10-17T18:39:44.436Z,56.92
2018-10-17T18:42:11.764Z,57.68
2018-10-17T18:44:39.051Z,57.85
2018-10-17T18:47:06.428Z,57.94
2018-10-17T18:49:33.674Z,57.36
2018-10-17T18:52:00.969Z,58.54
2018-10-17T18:54:28.258Z,58.39
2018-10-17T18:56:55.515Z,58.95
2018-10-17T18:59:22.852Z,58.75
2018-10-17T19:01:50.145Z,58.77
2018-10-17T19:04:17.410Z,58.82
2018-10-17T19:06:44.891Z,59.29
2018-10-17T19:09:13.381Z,58.91
2018-10-17T19:11:40.616Z,58.92
2018-10-17T19:14:08.292Z,59.16
2018-10-17T19:16:35.620Z,59.29
2018-10-17T19:19:03.473Z,59.16
2018-10-17T19:21:30.843Z,59.20
2018-10-17T19:23:58.440Z,59.30
2018-10-17T19:26:25.692Z,59.04
2018-10-17T19:28:52.971Z,59.47
2018-10-17T19:31:20.295Z,59.37
2018-10-17T19:33:47.702Z,58.88
2018-10-17T19:36:15.045Z,59.21
2018-10-17T19:38:42.404Z,59.62
2018-10-17T19:41:10.293Z,59.53
2018-10-17T19:43:37.607Z,59.77
2018-10-17T19:46:04.953Z,60.24
2018-10-17T19:48:32.227Z,60.92
2018-10-17T19:50:59.550Z,60.66
2018-10-17T19:53:26.815Z,61.34
2018-10-17T19:55:54.362Z,61.25
2018-10-17T19:58:21.709Z,61.15
2018-10-17T20:00:49.006Z,61.11
2018-10-17T20:03:16.401Z,61.98
2018-10-17T20:05:43.643Z,61.65
2018-10-17T20:08:11.178Z,62.45
2018-10-17T20:10:38.508Z,62.69
2018-10-17T20:13:05.843Z,62.92
2018-10-17T20:15:33.162Z,62.93
2018-10-17T20:18:00.447Z,62.68
2018-10-17T20:20:27.843Z,62.65
2018-10-17T20:22:55.227Z,63.20
2018-10-17T20:25:22.541Z,63.24
2018-10-17T20:27:49.893Z,62.91
2018-10-17T20:30:17.405Z,63.17
2018-10-17T20:32:44.611Z,62.93
2018-10-17T20:35:12.085Z,63.60
2018-10-17T20:37:39.420Z,63.08
2018-10-17T20:40:06.797Z,63.64
2018-10-17T20:42:34.047Z,63.74
2018-10-17T20:45:01.353Z,63.68
2018-10-17T20:47:28.633Z,64.59
2018-10-17T20:49:56.003Z,64.41
2018-10-17T20:52:23.474Z,64.60
2018-10-17T20:54:50.591Z,64.42
2018-10-17T20:57:17.833Z,64.41
2018-10-17T20:59:45.064Z,64.39
2018-10-17T21:02:12.478Z,65.05
2018-10-17T21:04:39.702Z,64.80
2018-10-17T21:07:07.047Z,65.06
2018-10-17T21:09:34.279Z,65.16
2018-10-17T21:12:01.634Z,65.82
2018-10-17T21:14:29.010Z,65.13
2018-10-17T21:16:56.263Z,64.89
2018-10-17T21:19:23.588Z,65.25
2018-10-17T21:21:50.892Z,65.78
2018-10-17T21:24:18.191Z,65.66
2018-10-17T21:26:45.549Z,66.85
2018-10-17T21:29:12.790Z,66.72
2018-10-17T21:31:40.080Z,67.79
2018-10-17T21:34:07.332Z,67.37
2018-10-17T21:36:34.612Z,67.24
2018-10-17T21:39:01.960Z,66.63
2018-10-17T21:41:29.255Z,67.30
2018-10-17T21:43:56.556Z,66.82
2018-10-17T21:46:23.899Z,67.42
2018-10-17T21:48:51.175Z,67.67
2018-10-17T21:51:18.461Z,67.12
2018-10-17T21:53:45.725Z,67.91
2018-10-17T21:56:13.130Z,67.58
2018-10-17T21:58:40.288Z,67.73
2018-10-17T22:01:07.702Z,67.97
2018-10-17T22:03:34.993Z,68.17
2018-10-17T22:06:02.289Z,67.97
2018-10-17T22:08:29.643Z,68.40
2018-10-17T22:10:56.954Z,68.41
2018-10-17T22:13:24.197Z,67.94
2018-10-17T22:15:51.486Z,68.64
2018-10-17T22:18:18.850Z,68.49
2018-10-17T22:20:46.178Z,68.76
2018-10-17T22:23:13.437Z,68.45
2018-10-17T22:25:40.750Z,69.01
2018-10-17T22:28:08.040Z,68.59
2018-10-17T22:30:35.337Z,69.05
2018-10-17T22:33:02.656Z,69.51
2018-10-17T22:35:29.913Z,68.98
2018-10-17T22:37:57.247Z,68.94
2018-10-17T22:40:24.606Z,69.20
2018-10-17T22:42:52.002Z,69.27
2018-10-17T22:45:19.257Z,69.30
2018-10-17T22:47:46.530Z,68.85
2018-10-17T22:50:13.884Z,68.75
2018-10-17T22:52:41.235Z,69.86
2018-10-17T22:55:08.560Z,70.13
2018-10-17T22:57:35.992Z,70.60
2018-10-17T23:00:03.325Z,70.10
2018-10-17T23:02:30.645Z,70.27
2018-10-17T23:04:57.912Z,70.01
2018-10-17T23:07:25.917Z,70.04
2018-10-17T23:09:53.109Z,70.52
2018-10-17T23:12:20.423Z,70.29
2018-10-17T23:14:47.812Z,70.65
2018-10-17T23:17:15.036Z,70.54
2018-10-17T23:19:42.294Z,69.98
2018-10-17T23:22:09.619Z,71.19
2018-10-17T23:24:36.888Z,70.65
2018-10-17T23:27:04.200Z,70.74
2018-10-17T23:29:31.569Z,70.70
2018-10-17T23:31:58.813Z,70.69
2018-10-17T23:34:26.062Z,70.15
2018-10-17T23:36:53.373Z,70.83
2018-10-17T23:39:20.673Z,70.46
2018-10-17T23:41:47.926Z,70.14
2018-10-17T23:44:15.387Z,70.18
2018-10-17T23:46:42.638Z,70.15
2018-10-17T23:49:09.947Z,70.27
2018-10-17T23:51:37.266Z,70.53
2018-10-17T23:54:04.702Z,71.20
2018-10-17T23:56:31.921Z,71.25
2018-10-17T23:58:59.189Z,72.08
